createdAt,value
2022-09-15T00:00:01.081Z,132.7
2022-09-15T00:01:07.474Z,136.3
2022-09-15T00:02:13.875Z,139.9
2022-09-15T00:03:20.268Z,142.7
2022-09-15T00:04:26.664Z,145.4
2022-09-15T00:05:33.045Z,148.4
2022-09-15T00:06:39.449Z,152.6
2022-09-15T00:07:45.832Z,154.6
2022-09-15T00:08:52.219Z,156.4
2022-09-15T00:09:58.612Z,156
2022-09-15T00:11:05.006Z,159
2022-09-15T00:12:11.409Z,164.2
2022-09-15T00:13:17.798Z,168
2022-09-15T00:14:24.239Z,170.6
2022-09-15T00:15:30.588Z,168.2
2022-09-15T00:16:36.988Z,165.2
2022-09-15T00:17:43.374Z,163.8
2022-09-15T00:18:49.791Z,165.6
2022-09-15T00:19:56.161Z,168.2
2022-09-15T00:21:02.560Z,170.2
2022-09-15T00:22:09.090Z,172.4
2022-09-15T00:23:15.603Z,175
2022-09-15T00:24:22.117Z,177.8
2022-09-15T00:25:28.638Z,178.6
2022-09-15T00:26:35.145Z,180.2
2022-09-15T00:27:41.699Z,181.4
2022-09-15T00:28:48.168Z,182
2022-09-15T00:29:54.680Z,185.9
2022-09-15T00:31:01.198Z,186.3
2022-09-15T00:32:07.706Z,185.9
2022-09-15T00:33:14.218Z,185.7
2022-09-15T00:34:20.736Z,187.3
2022-09-15T00:35:27.266Z,187.7
2022-09-15T00:37:16.596Z,191.9
2022-09-15T00:38:23.355Z,194.1
2022-09-15T00:39:30.114Z,195.5
2022-09-15T00:40:36.872Z,198.1
2022-09-15T00:41:43.613Z,200.6
2022-09-15T00:42:50.363Z,198.1
2022-09-15T00:43:57.119Z,197.5
2022-09-15T00:45:03.873Z,200.7
2022-09-15T00:46:10.634Z,204.3
2022-09-15T00:47:17.371Z,204.3
2022-09-15T00:48:24.129Z,201.8
2022-09-15T00:49:30.880Z,200.8
2022-09-15T00:50:37.637Z,202.5
2022-09-15T00:53:55.789Z,205.2
2022-09-15T00:55:34.528Z,209.4
2022-09-15T00:56:41.767Z,207.5
2022-09-15T00:57:48.991Z,209.2
2022-09-15T00:59:27.715Z,212.1
2022-09-15T01:01:06.483Z,215.4
2022-09-15T01:02:45.202Z,217.1
2022-09-15T01:04:23.934Z,214.2
2022-09-15T01:06:02.665Z,215.8
2022-09-15T01:07:41.406Z,213.2
2022-09-15T01:09:20.137Z,209.7
2022-09-15T01:10:58.871Z,212.2
2022-09-15T01:12:37.616Z,216.8
2022-09-15T01:14:17.368Z,216.6
2022-09-15T01:17:32.935Z,215.3
2022-09-15T01:18:39.331Z,201.2
2022-09-15T01:19:45.715Z,203.8
2022-09-15T01:20:52.116Z,204.8
2022-09-15T01:21:58.504Z,207.6
2022-09-15T01:23:04.920Z,208.5
2022-09-15T01:24:11.300Z,209.5
2022-09-15T01:25:17.685Z,211
2022-09-15T01:26:24.115Z,212.2
2022-09-15T01:27:30.485Z,214.6
2022-09-15T01:28:36.888Z,214.6
2022-09-15T01:29:43.280Z,215.4
2022-09-15T01:30:49.681Z,215.8
2022-09-15T01:31:56.075Z,214.5
2022-09-15T01:33:02.491Z,212.7
2022-09-15T01:34:08.901Z,210.1
2022-09-15T01:35:15.261Z,208.8
2022-09-15T01:36:21.654Z,207
2022-09-15T01:37:28.065Z,201.5
2022-09-15T01:38:34.450Z,197.9
2022-09-15T01:39:40.854Z,198.3
2022-09-15T01:40:47.247Z,197.3
2022-09-15T01:41:53.633Z,195.9
2022-09-15T01:43:00.050Z,194.5
2022-09-15T01:44:06.435Z,191.1
2022-09-15T01:45:12.966Z,186.9
2022-09-15T01:46:19.479Z,183.9
2022-09-15T01:47:25.993Z,182.2
2022-09-15T01:48:32.499Z,182.6
2022-09-15T01:49:39.013Z,184.2
2022-09-15T01:50:45.518Z,184.5
2022-09-15T01:51:52.028Z,184.2
2022-09-15T01:52:58.547Z,183.8
2022-09-15T01:54:05.109Z,179.6
2022-09-15T01:55:11.585Z,177
2022-09-15T01:56:18.097Z,175.8
2022-09-15T01:57:24.595Z,174.6
2022-09-15T01:58:31.119Z,173.2
2022-09-15T02:00:20.441Z,172
2022-09-15T02:01:27.202Z,170.4
2022-09-15T02:02:33.934Z,169
2022-09-15T02:03:40.690Z,166.8
2022-09-15T02:04:47.445Z,164.2
2022-09-15T02:05:54.188Z,162.2
2022-09-15T02:07:00.936Z,161.2
2022-09-15T02:08:07.694Z,161.8
2022-09-15T02:09:14.434Z,162.2
2022-09-15T02:10:21.198Z,163
2022-09-15T02:11:27.952Z,163.8
2022-09-15T02:12:34.688Z,163.6
2022-09-15T02:13:41.441Z,163.6
2022-09-15T02:16:59.591Z,163.6
2022-09-15T02:18:38.319Z,162.4
2022-09-15T02:19:45.552Z,162
2022-09-15T02:20:52.778Z,162
2022-09-15T02:22:31.500Z,160.6
2022-09-15T02:24:10.256Z,160
2022-09-15T02:25:48.958Z,158.6
2022-09-15T02:27:27.691Z,157.2
2022-09-15T02:29:06.425Z,156.4
2022-09-15T02:30:45.161Z,155
2022-09-15T02:32:23.890Z,154.6
2022-09-15T02:34:02.608Z,153.8
2022-09-15T02:35:41.418Z,153.6
2022-09-15T02:37:21.084Z,151
2022-09-15T02:40:36.617Z,149.8
2022-09-15T02:41:43.018Z,146.4
2022-09-15T02:42:49.399Z,146
2022-09-15T02:43:55.783Z,145.6
2022-09-15T02:45:02.182Z,144.7
2022-09-15T02:46:08.571Z,144.9
2022-09-15T02:47:14.973Z,144.1
2022-09-15T02:48:21.352Z,144.6
2022-09-15T02:49:27.776Z,145.2
2022-09-15T02:50:34.129Z,143.9
2022-09-15T02:51:40.526Z,142.5
2022-09-15T02:52:46.927Z,141.3
2022-09-15T02:53:53.322Z,139.3
2022-09-15T02:54:59.715Z,138.7
2022-09-15T02:56:06.117Z,137.3
2022-09-15T02:57:12.605Z,136.3
2022-09-15T02:58:18.902Z,135.9
2022-09-15T02:59:25.304Z,135.1
2022-09-15T03:00:31.699Z,135.3
2022-09-15T03:01:38.091Z,134.9
2022-09-15T03:02:44.487Z,132.9
2022-09-15T03:03:50.877Z,132.3
2022-09-15T03:04:57.264Z,131.5
2022-09-15T03:06:03.661Z,129.7
2022-09-15T03:07:10.043Z,129.1
2022-09-15T03:08:16.569Z,128.7
2022-09-15T03:09:23.096Z,128.7
2022-09-15T03:10:29.590Z,128.5
2022-09-15T03:11:36.109Z,129.1
2022-09-15T03:12:42.616Z,128.7
2022-09-15T03:13:49.133Z,127.7
2022-09-15T03:14:55.664Z,127.1
2022-09-15T03:16:02.167Z,127.3
2022-09-15T03:17:08.715Z,127.1
2022-09-15T03:18:15.211Z,126.5
2022-09-15T03:19:21.778Z,126.3
2022-09-15T03:20:28.262Z,125.5
2022-09-15T03:21:34.763Z,125.5
2022-09-15T03:23:24.107Z,124.9
2022-09-15T03:24:30.870Z,124.7
2022-09-15T03:25:37.617Z,124.5
2022-09-15T03:26:44.371Z,125.5
2022-09-15T03:27:51.127Z,125.9
2022-09-15T03:28:57.901Z,126.1
2022-09-15T03:30:04.649Z,125.5
2022-09-15T03:31:11.417Z,125.5
2022-09-15T03:32:18.157Z,124.9
2022-09-15T03:33:24.916Z,125.1
2022-09-15T03:34:31.653Z,125.1
2022-09-15T03:35:38.447Z,125.7
2022-09-15T03:36:45.180Z,125.9
2022-09-15T03:40:03.334Z,126.1
2022-09-15T03:41:42.065Z,128.5
2022-09-15T03:42:49.292Z,129.9
2022-09-15T03:43:56.521Z,131.1
2022-09-15T03:45:35.242Z,131.9
2022-09-15T03:47:13.989Z,133.5
2022-09-15T03:48:52.707Z,133.9
2022-09-15T03:50:31.440Z,134.3
2022-09-15T03:52:10.176Z,133.1
2022-09-15T03:53:48.903Z,132.9
2022-09-15T03:55:27.629Z,132.9
2022-09-15T03:57:06.415Z,133.1
2022-09-15T03:58:45.101Z,133.5
2022-09-15T04:00:24.950Z,132.7
2022-09-15T04:03:40.510Z,133.1
2022-09-15T04:04:47.013Z,133.7
2022-09-15T04:05:53.552Z,133.9
2022-09-15T04:07:00.098Z,134.1
2022-09-15T04:08:06.566Z,133.7
2022-09-15T04:09:13.067Z,133.1
2022-09-15T04:10:19.578Z,132.5
2022-09-15T04:11:26.164Z,132.3
2022-09-15T04:12:32.597Z,132.7
2022-09-15T04:13:39.110Z,133.5
2022-09-15T04:14:45.690Z,133.3
2022-09-15T04:15:52.149Z,132.7
2022-09-15T04:16:58.662Z,132.7
2022-09-15T04:18:05.161Z,132.3
2022-09-15T04:19:11.660Z,131.7
2022-09-15T04:20:18.180Z,131.1
2022-09-15T04:21:24.688Z,131.7
2022-09-15T04:22:31.221Z,131.7
2022-09-15T04:23:37.712Z,132.3
2022-09-15T04:24:44.218Z,131.9
2022-09-15T04:25:50.731Z,131.1
2022-09-15T04:26:57.243Z,129.9
2022-09-15T04:28:03.787Z,129.9
2022-09-15T04:29:10.281Z,128.9
2022-09-15T04:30:16.888Z,129.1
2022-09-15T04:31:23.543Z,128.5
2022-09-15T04:32:30.297Z,129.3
2022-09-15T04:33:37.037Z,130.1
2022-09-15T04:34:43.815Z,131.1
2022-09-15T04:35:50.550Z,132.5
2022-09-15T04:36:57.266Z,132.3
2022-09-15T04:38:04.037Z,132.3
2022-09-15T04:39:10.842Z,130.1
2022-09-15T04:40:17.507Z,129.9
2022-09-15T04:41:24.289Z,128.9
2022-09-15T04:42:31.005Z,127.9
2022-09-15T04:43:37.792Z,127.5
2022-09-15T04:44:44.530Z,128.1
2022-09-15T04:47:23.743Z,128.9
2022-09-15T04:49:02.474Z,127.3
2022-09-15T04:50:41.219Z,126.1
2022-09-15T04:52:19.952Z,124.5
2022-09-15T04:53:27.172Z,122.7
2022-09-15T04:54:34.408Z,121.5
2022-09-15T04:56:13.107Z,121.9
2022-09-15T04:57:51.824Z,121.3
2022-09-15T04:59:30.526Z,120.3
2022-09-15T05:01:09.231Z,119.7
2022-09-15T05:02:48.055Z,119.9
2022-09-15T05:04:26.659Z,118.9
2022-09-15T05:06:05.398Z,117.8
2022-09-15T05:09:55.181Z,116.2
2022-09-15T05:11:03.472Z,116.1
2022-09-15T05:14:20.865Z,115.9
2022-09-15T05:17:38.274Z,116.5
2022-09-15T05:20:55.683Z,114.3
2022-09-15T05:24:13.082Z,112.7
2022-09-15T05:27:30.503Z,110.3
2022-09-15T05:30:47.941Z,108.9
2022-09-15T05:34:05.476Z,106.7
2022-09-15T05:37:22.851Z,105.6
2022-09-15T05:40:40.310Z,103.2
2022-09-15T05:42:47.291Z,102.3
2022-09-15T05:43:55.884Z,100.6
2022-09-15T05:45:02.284Z,99.4
2022-09-15T05:46:08.715Z,99
2022-09-15T05:47:15.162Z,98.9
2022-09-15T05:48:21.582Z,98.4
2022-09-15T05:50:34.434Z,98.4
2022-09-15T05:51:40.866Z,98.2
2022-09-15T05:52:47.296Z,98.4
2022-09-15T05:53:53.726Z,98
2022-09-15T05:55:00.153Z,97.8
2022-09-15T05:56:06.587Z,98.4
2022-09-15T05:57:13.011Z,97.8
2022-09-15T05:58:19.438Z,97.7
2022-09-15T05:59:25.935Z,97.6
2022-09-15T06:00:32.334Z,96.8
2022-09-15T06:01:38.732Z,96.4
2022-09-15T06:02:45.148Z,96.8
2022-09-15T06:03:51.596Z,96
2022-09-15T06:04:58.034Z,93.8
2022-09-15T06:06:04.436Z,93.8
2022-09-15T06:07:10.861Z,92.4
2022-09-15T06:08:17.235Z,91.6
2022-09-15T06:09:23.634Z,91.4
2022-09-15T06:10:30.143Z,90.6
2022-09-15T06:11:36.773Z,90.4
2022-09-15T06:12:43.201Z,90
2022-09-15T06:13:49.731Z,89.2
2022-09-15T06:14:56.285Z,88.2
2022-09-15T06:16:02.868Z,87.2
2022-09-15T06:17:09.381Z,86
2022-09-15T06:18:15.943Z,85
2022-09-15T06:19:22.510Z,83.4
2022-09-15T06:20:29.045Z,82.2
2022-09-15T06:21:35.618Z,80.2
2022-09-15T06:22:42.139Z,79.2
2022-09-15T06:23:48.693Z,79
2022-09-15T06:25:20.825Z,78.6
2022-09-15T06:26:27.617Z,76.8
2022-09-15T06:27:34.402Z,75.4
2022-09-15T06:28:41.185Z,74.4
2022-09-15T06:29:47.988Z,73.2
2022-09-15T06:30:54.778Z,71.6
2022-09-15T06:32:01.564Z,70.6
2022-09-15T06:33:08.342Z,70
2022-09-15T06:34:15.160Z,69.4
2022-09-15T06:35:21.929Z,69.4
2022-09-15T06:36:28.800Z,68.4
2022-09-15T06:37:35.504Z,67.6
2022-09-15T06:38:42.289Z,67.2
2022-09-15T06:42:00.461Z,67.8
2022-09-15T06:43:39.130Z,69.8
2022-09-15T06:45:17.838Z,70.6
2022-09-15T06:46:25.099Z,70
2022-09-15T06:47:32.308Z,70.6
2022-09-15T06:49:11.055Z,70
2022-09-15T06:50:49.814Z,69.6
2022-09-15T06:52:28.595Z,69
2022-09-15T06:54:07.317Z,69
2022-09-15T06:55:46.155Z,67.8
2022-09-15T06:57:24.823Z,66.4
2022-09-15T06:59:03.593Z,65.4
2022-09-15T07:00:42.346Z,63.6
2022-09-15T07:02:53.083Z,61.6
2022-09-15T07:04:50.354Z,59.2
2022-09-15T07:08:07.810Z,56.4
2022-09-15T07:11:25.262Z,52.6
2022-09-15T07:14:42.706Z,47.4
2022-09-15T07:18:00.204Z,46.8
2022-09-15T07:21:17.590Z,46.8
2022-09-15T07:24:35.053Z,43.6
2022-09-15T07:27:52.488Z,41.2
2022-09-15T07:31:09.943Z,37.6
2022-09-15T07:34:27.401Z,34.8
2022-09-15T07:35:47.093Z,32.6
2022-09-15T07:37:44.849Z,30.8
2022-09-15T07:43:30.597Z,27.4
2022-09-15T07:46:48.096Z,22.4
2022-09-15T07:50:05.491Z,24.4
2022-09-15T07:53:22.939Z,21.8
2022-09-15T07:56:40.401Z,15.6
2022-09-15T07:59:57.789Z,14
2022-09-15T08:03:13.351Z,9.2
2022-09-15T08:04:19.775Z,1.5
2022-09-15T08:05:26.160Z,-1.3
2022-09-15T08:06:32.642Z,-3.3
2022-09-15T08:07:39.079Z,-6.7
2022-09-15T08:08:45.468Z,-5.9
2022-09-15T08:09:51.857Z,-4.5
2022-09-15T08:10:58.341Z,-6.1
2022-09-15T08:12:04.652Z,-7.3
2022-09-15T08:13:11.046Z,-6.5
2022-09-15T08:14:17.500Z,-6.9
2022-09-15T08:15:23.893Z,-4.7
2022-09-15T08:16:30.357Z,-3.3
2022-09-15T08:17:36.743Z,-2.1
2022-09-15T08:18:43.235Z,-2.3
2022-09-15T08:19:49.638Z,-3.1
2022-09-15T08:20:56.006Z,-2.9
2022-09-15T08:22:02.413Z,0.4
2022-09-15T08:23:08.846Z,3.4
2022-09-15T08:24:15.245Z,3.8
2022-09-15T08:25:21.661Z,6.9
2022-09-15T08:26:28.021Z,8.6
2022-09-15T08:27:34.379Z,8.2
2022-09-15T08:28:40.793Z,9
2022-09-15T08:29:47.235Z,9.2
2022-09-15T08:30:53.695Z,9.3
2022-09-15T08:32:00.216Z,11.3
2022-09-15T08:33:06.763Z,11.8
2022-09-15T08:34:13.310Z,10.2
2022-09-15T08:35:19.870Z,10.2
2022-09-15T08:36:26.415Z,9.1
2022-09-15T08:37:32.975Z,7.3
2022-09-15T08:38:39.505Z,5.5
2022-09-15T08:39:46.064Z,4.4
2022-09-15T08:40:52.597Z,3.5
2022-09-15T08:41:59.251Z,1.6
2022-09-15T08:43:05.636Z,0.9
2022-09-15T08:44:12.142Z,-2.3
2022-09-15T08:45:44.496Z,-5.1
2022-09-15T08:46:51.264Z,-6.9
2022-09-15T08:47:58.049Z,-8.7
2022-09-15T08:49:04.841Z,-7.9
2022-09-15T08:50:11.636Z,-7.1
2022-09-15T08:51:18.297Z,-9.3
2022-09-15T08:52:25.136Z,-12.7
2022-09-15T08:53:31.912Z,-15.8
2022-09-15T08:54:38.588Z,-17.4
2022-09-15T08:55:45.376Z,-21.2
2022-09-15T08:56:52.177Z,-23.4
2022-09-15T08:57:58.913Z,-25
2022-09-15T08:59:05.640Z,-26.6
2022-09-15T09:02:23.816Z,-25.2
2022-09-15T09:04:02.485Z,-20.8
2022-09-15T09:05:41.252Z,-18.6
2022-09-15T09:06:48.517Z,-18.8
2022-09-15T09:07:55.659Z,-18
2022-09-15T09:09:34.426Z,-16.6
2022-09-15T09:11:13.174Z,-9.5
2022-09-15T09:12:51.891Z,-4.1
2022-09-15T09:14:30.546Z,-0.5
2022-09-15T09:16:09.298Z,-0.7
2022-09-15T09:17:48.084Z,-3.5
2022-09-15T09:19:26.815Z,-5.9
2022-09-15T09:21:05.602Z,-8.7
2022-09-15T09:23:16.503Z,-13.3
2022-09-15T09:25:11.847Z,-17.6
2022-09-15T09:26:18.334Z,-20.2
2022-09-15T09:27:24.858Z,-18
2022-09-15T09:28:31.358Z,-18.2
2022-09-15T09:29:37.918Z,-14.9
2022-09-15T09:30:44.510Z,-12.9
2022-09-15T09:31:51.007Z,-12.9
2022-09-15T09:32:57.550Z,-11.9
2022-09-15T09:34:04.114Z,-12.5
2022-09-15T09:35:10.610Z,-14.1
2022-09-15T09:36:17.111Z,-16.4
2022-09-15T09:37:23.654Z,-19.4
2022-09-15T09:38:30.176Z,-23
2022-09-15T09:39:36.669Z,-27.2
2022-09-15T09:40:43.212Z,-29.4
2022-09-15T09:41:49.722Z,-30.6
2022-09-15T09:42:56.274Z,-31.2
2022-09-15T09:44:02.765Z,-33.5
2022-09-15T09:45:09.295Z,-36.1
2022-09-15T09:46:15.926Z,-35.7
2022-09-15T09:47:22.424Z,-36.9
2022-09-15T09:48:28.883Z,-40.5
2022-09-15T09:49:35.478Z,-42.9
2022-09-15T09:50:41.977Z,-41.9
2022-09-15T09:51:48.417Z,-39.7
2022-09-15T09:52:55.237Z,-38.1
2022-09-15T09:54:01.994Z,-37.3
2022-09-15T09:55:08.746Z,-34.7
2022-09-15T09:56:15.646Z,-33.9
2022-09-15T09:57:22.446Z,-31.4
2022-09-15T09:58:29.254Z,-26.6
2022-09-15T09:59:36.022Z,-20.4
2022-09-15T10:00:42.832Z,-17.2
2022-09-15T10:01:49.679Z,-13.9
2022-09-15T10:02:56.430Z,-7.9
2022-09-15T10:04:03.071Z,-5.5
2022-09-15T10:05:09.821Z,-2.9
2022-09-15T10:06:16.680Z,-1.7
2022-09-15T10:08:55.074Z,0
2022-09-15T10:10:33.853Z,-0.3
2022-09-15T10:12:12.649Z,-2.9
2022-09-15T10:13:51.367Z,-7.1
2022-09-15T10:14:58.787Z,-11.9
2022-09-15T10:16:05.847Z,-15.6
2022-09-15T10:17:44.720Z,-19.6
2022-09-15T10:19:23.372Z,-23.6
2022-09-15T10:21:02.033Z,-28.4
2022-09-15T10:22:40.810Z,-30.4
2022-09-15T10:24:19.488Z,-29.6
2022-09-15T10:25:58.224Z,-27
2022-09-15T10:27:36.993Z,-28
2022-09-15T10:31:26.588Z,-28
2022-09-15T10:32:33.099Z,-28.6
2022-09-15T10:33:39.453Z,-29.4
2022-09-15T10:34:45.883Z,-31
2022-09-15T10:35:52.340Z,-32.2
2022-09-15T10:36:58.706Z,-32.8
2022-09-15T10:38:05.061Z,-34.7
2022-09-15T10:39:11.472Z,-35.1
2022-09-15T10:40:17.852Z,-33.1
2022-09-15T10:41:24.254Z,-34.1
2022-09-15T10:42:30.658Z,-34.3
2022-09-15T10:43:37.064Z,-35.7
2022-09-15T10:44:43.449Z,-36.9
2022-09-15T10:45:49.981Z,-37.5
2022-09-15T10:46:56.320Z,-39.5
2022-09-15T10:48:02.731Z,-40.5
2022-09-15T10:49:09.136Z,-41.3
2022-09-15T10:50:15.534Z,-44.1
2022-09-15T10:51:21.951Z,-43.9
2022-09-15T10:52:28.281Z,-45.3
2022-09-15T10:53:34.654Z,-46
2022-09-15T10:54:41.143Z,-46.2
2022-09-15T10:55:47.454Z,-47
2022-09-15T10:56:53.947Z,-46.2
2022-09-15T10:58:00.297Z,-44.9
2022-09-15T10:59:06.709Z,-42.5
2022-09-15T11:00:13.187Z,-41.9
2022-09-15T11:01:19.779Z,-40.7
2022-09-15T11:02:26.289Z,-41.5
2022-09-15T11:03:32.696Z,-41.9
2022-09-15T11:04:39.228Z,-41.3
2022-09-15T11:05:45.777Z,-41.9
2022-09-15T11:06:52.357Z,-42.5
2022-09-15T11:07:58.796Z,-43.9
2022-09-15T11:09:05.373Z,-44.9
2022-09-15T11:10:11.904Z,-44.1
2022-09-15T11:11:18.363Z,-41.3
2022-09-15T11:12:24.914Z,-42.1
2022-09-15T11:13:31.528Z,-43.7
2022-09-15T11:15:20.821Z,-44.7
2022-09-15T11:16:27.524Z,-44.1
2022-09-15T11:17:34.277Z,-45.1
2022-09-15T11:18:41.090Z,-47.6
2022-09-15T11:19:47.819Z,-48.8
2022-09-15T11:20:54.531Z,-49.2
2022-09-15T11:22:01.290Z,-50
2022-09-15T11:23:08.063Z,-50.4
2022-09-15T11:24:14.824Z,-51.4
2022-09-15T11:25:21.638Z,-50.8
2022-09-15T11:26:28.359Z,-50
2022-09-15T11:27:35.165Z,-49.6
2022-09-15T11:28:41.947Z,-46.6
2022-09-15T11:32:00.133Z,-42.9
2022-09-15T11:33:35.592Z,-31.4
2022-09-15T11:34:42.931Z,-25.2
2022-09-15T11:36:21.661Z,-23.6
2022-09-15T11:38:00.379Z,-17.8
2022-09-15T11:39:38.350Z,-11.9
2022-09-15T11:40:44.728Z,-8.1
2022-09-15T11:41:51.121Z,-7.1
2022-09-15T11:42:57.458Z,-3.9
2022-09-15T11:44:03.856Z,-2.5
2022-09-15T11:45:10.236Z,-0.7
2022-09-15T11:46:16.715Z,1.3
2022-09-15T11:47:23.041Z,1.6
2022-09-15T11:48:29.447Z,2.9
2022-09-15T11:49:35.921Z,4.5
2022-09-15T11:50:42.284Z,5.4
2022-09-15T11:51:48.714Z,6
2022-09-15T11:52:55.097Z,6
2022-09-15T11:54:01.556Z,6
2022-09-15T11:55:07.910Z,6.3
2022-09-15T11:56:14.314Z,6.2
2022-09-15T11:57:20.698Z,5.2
2022-09-15T11:58:27.107Z,3.1
2022-09-15T11:59:33.517Z,1.3
2022-09-15T12:00:39.904Z,-0.9
2022-09-15T12:01:46.268Z,-3.3
2022-09-15T12:02:52.647Z,-5.5
2022-09-15T12:03:59.107Z,-8.7
2022-09-15T12:05:05.470Z,-12.3
2022-09-15T12:06:12.004Z,-14.7
2022-09-15T12:07:18.460Z,-16.4
2022-09-15T12:08:24.929Z,-18.4
2022-09-15T12:09:31.466Z,-20
2022-09-15T12:10:38.116Z,-22.8
2022-09-15T12:11:44.644Z,-25.2
2022-09-15T12:12:51.144Z,-30.4
2022-09-15T12:13:57.574Z,-33.7
2022-09-15T12:15:04.060Z,-36.7
2022-09-15T12:16:10.580Z,-36.7
2022-09-15T12:17:17.199Z,-35.3
2022-09-15T12:18:23.631Z,-33.9
2022-09-15T12:19:30.165Z,-32.9
2022-09-15T12:20:36.705Z,-31.4
2022-09-15T12:22:25.997Z,-30.8
2022-09-15T12:23:32.786Z,-31.2
2022-09-15T12:24:39.587Z,-30.6
2022-09-15T12:25:46.400Z,-28.8
2022-09-15T12:26:53.196Z,-26.6
2022-09-15T12:28:00.085Z,-26.2
2022-09-15T12:29:06.812Z,-24
2022-09-15T12:30:13.680Z,-23.8
2022-09-15T12:31:20.419Z,-23
2022-09-15T12:32:27.301Z,-22.4
2022-09-15T12:33:34.123Z,-21.2
2022-09-15T12:34:40.872Z,-22
2022-09-15T12:35:47.593Z,-22.4
2022-09-15T12:39:05.812Z,-23.4
2022-09-15T12:40:44.471Z,-25.4
2022-09-15T12:41:51.681Z,-28.6
2022-09-15T12:42:58.926Z,-29
2022-09-15T12:44:37.674Z,-30.6
2022-09-15T12:46:16.457Z,-39.5
2022-09-15T12:47:55.190Z,-66
2022-09-15T12:49:33.848Z,-90.7
2022-09-15T12:51:12.577Z,-91.4
2022-09-15T12:52:51.310Z,-88.9
2022-09-15T12:54:30.095Z,-84.4
2022-09-15T12:56:08.840Z,-80.8
2022-09-15T12:57:47.509Z,-76.7
2022-09-15T12:59:27.331Z,-81.2
2022-09-15T13:02:43.242Z,-81.6
2022-09-15T13:03:49.998Z,-75.7
2022-09-15T13:04:56.822Z,-72
2022-09-15T13:06:03.502Z,-69.6
2022-09-15T13:07:10.267Z,-67.6
2022-09-15T13:08:16.956Z,-63.9
2022-09-15T13:09:23.716Z,-63.1
2022-09-15T13:10:30.479Z,-65.4
2022-09-15T13:11:37.340Z,-70
2022-09-15T13:12:44.087Z,-76.9
2022-09-15T13:13:50.863Z,-86.7
2022-09-15T13:14:57.551Z,-96
2022-09-15T13:16:04.355Z,-104.8
2022-09-15T13:17:11.075Z,-109.6
2022-09-15T13:18:17.838Z,-107.7
2022-09-15T13:19:24.556Z,-99.1
2022-09-15T13:20:31.387Z,-96.4
2022-09-15T13:21:38.111Z,-91
2022-09-15T13:22:44.895Z,-82.6
2022-09-15T13:23:51.685Z,-74.1
2022-09-15T13:24:58.452Z,-67.8
2022-09-15T13:26:05.308Z,-62.1
2022-09-15T13:27:12.068Z,-55.2
2022-09-15T13:28:18.937Z,-49.4
2022-09-15T13:29:25.672Z,-46.2
2022-09-15T13:31:37.897Z,-44.3
2022-09-15T13:32:45.265Z,-42.3
2022-09-15T13:33:52.467Z,-40.7
2022-09-15T13:35:31.214Z,-39.9
2022-09-15T13:37:09.959Z,-33.7
2022-09-15T13:38:48.690Z,-28.6
2022-09-15T13:40:27.434Z,-25
2022-09-15T13:42:06.264Z,-22.4
2022-09-15T13:43:44.104Z,-19.2
2022-09-15T13:44:50.557Z,-17.8
2022-09-15T13:45:56.955Z,-17
2022-09-15T13:47:03.437Z,-16.6
2022-09-15T13:48:09.889Z,-16.8
2022-09-15T13:49:16.293Z,-16.6
2022-09-15T13:50:22.754Z,-16.2
2022-09-15T13:51:29.239Z,-15.6
2022-09-15T13:52:35.733Z,-15.3
2022-09-15T13:53:42.176Z,-15.8
2022-09-15T13:54:48.627Z,-16.4
2022-09-15T13:55:55.133Z,-18.8
2022-09-15T13:57:01.547Z,-21.4
2022-09-15T13:58:07.893Z,-24.4
2022-09-15T13:59:14.352Z,-26.4
2022-09-15T14:00:20.823Z,-28
2022-09-15T14:01:27.282Z,-27.6
2022-09-15T14:02:33.761Z,-26.6
2022-09-15T14:03:40.149Z,-26.2
2022-09-15T14:04:46.592Z,-24.4
2022-09-15T14:05:53.104Z,-21.8
2022-09-15T14:06:59.539Z,-21
2022-09-15T14:08:05.934Z,-20.4
2022-09-15T14:09:12.378Z,-19.4
2022-09-15T14:10:18.850Z,-18
2022-09-15T14:11:25.382Z,-16
2022-09-15T14:12:31.968Z,-14.5
2022-09-15T14:13:38.479Z,-13.1
2022-09-15T14:14:45.073Z,-11.3
2022-09-15T14:15:51.601Z,-10.1
2022-09-15T14:16:58.111Z,-8.9
2022-09-15T14:18:04.603Z,-7.5
2022-09-15T14:19:11.097Z,-6.5
2022-09-15T14:20:17.596Z,-5.7
2022-09-15T14:21:24.098Z,-4.3
2022-09-15T14:22:30.670Z,-3.5
2022-09-15T14:23:37.159Z,-2.3
2022-09-15T14:24:43.650Z,-0.7
2022-09-15T14:26:15.704Z,1
2022-09-15T14:27:22.548Z,2.4
2022-09-15T14:28:29.256Z,3.3
2022-09-15T14:29:36.057Z,4.6
2022-09-15T14:30:42.716Z,5.7
2022-09-15T14:31:49.426Z,5.6
2022-09-15T14:32:56.198Z,6.2
2022-09-15T14:34:03.010Z,6.5
2022-09-15T14:35:09.798Z,6.6
2022-09-15T14:36:16.447Z,6.3
2022-09-15T14:37:23.374Z,6.3
2022-09-15T14:38:30.137Z,5.8
2022-09-15T14:39:36.778Z,5.1
2022-09-15T14:42:55.050Z,4.7
2022-09-15T14:44:33.757Z,2.6
2022-09-15T14:46:12.520Z,0.9
2022-09-15T14:47:19.663Z,-0.9
2022-09-15T14:48:26.943Z,-1.5
2022-09-15T14:50:05.608Z,-3.1
2022-09-15T14:51:44.277Z,-6.7
2022-09-15T14:53:23.129Z,-11.3
2022-09-15T14:55:01.925Z,-15.2
2022-09-15T14:56:40.470Z,-18.4
2022-09-15T14:58:19.222Z,-21.4
2022-09-15T14:59:57.988Z,-21.8
2022-09-15T15:01:36.713Z,-23.6
2022-09-15T15:03:47.797Z,-24.6
2022-09-15T15:05:44.862Z,-25
2022-09-15T15:09:00.362Z,-22.2
2022-09-15T15:10:06.909Z,-16.4
2022-09-15T15:11:13.350Z,-14.8
2022-09-15T15:12:19.832Z,-14.7
2022-09-15T15:13:26.248Z,-15.2
2022-09-15T15:14:32.571Z,-16.4
2022-09-15T15:15:39.108Z,-16.4
2022-09-15T15:16:45.621Z,-17
2022-09-15T15:17:51.982Z,-18
2022-09-15T15:18:58.331Z,-17.6
2022-09-15T15:20:04.835Z,-16.8
2022-09-15T15:21:11.311Z,-16.6
2022-09-15T15:22:17.659Z,-16.2
2022-09-15T15:23:24.130Z,-14.8
2022-09-15T15:24:30.660Z,-14.1
2022-09-15T15:25:36.962Z,-12.9
2022-09-15T15:26:43.411Z,-11.7
2022-09-15T15:27:49.836Z,-11.3
2022-09-15T15:28:56.330Z,-10.1
2022-09-15T15:30:02.643Z,-8.1
2022-09-15T15:31:09.054Z,-6.9
2022-09-15T15:32:15.398Z,-5.9
2022-09-15T15:33:21.776Z,-4.9
2022-09-15T15:34:28.159Z,-4.5
2022-09-15T15:35:34.531Z,-2.3
2022-09-15T15:36:41.081Z,-1.3
2022-09-15T15:37:47.550Z,-0.9
2022-09-15T15:38:54.118Z,-0.1
2022-09-15T15:40:00.654Z,1.6
2022-09-15T15:41:07.178Z,1.6
2022-09-15T15:42:13.699Z,1.4
2022-09-15T15:43:20.356Z,1.1
2022-09-15T15:44:26.900Z,0.5
2022-09-15T15:45:33.387Z,0.2
2022-09-15T15:46:39.905Z,-0.1
2022-09-15T15:47:46.257Z,-0.3
2022-09-15T15:48:52.932Z,-1.1
2022-09-15T15:49:59.383Z,-2.5
2022-09-15T15:51:48.764Z,-3.9
2022-09-15T15:52:55.525Z,-5.3
2022-09-15T15:54:02.122Z,-5.7
2022-09-15T15:55:08.866Z,-7.1
2022-09-15T15:56:15.681Z,-8.3
2022-09-15T15:57:22.410Z,-9.7
2022-09-15T15:58:29.241Z,-10.3
2022-09-15T15:59:35.915Z,-10.3
2022-09-15T16:00:42.733Z,-8.9
2022-09-15T16:01:49.463Z,-8.5
2022-09-15T16:02:56.230Z,-8.1
2022-09-15T16:04:02.962Z,-7.3
2022-09-15T16:05:09.645Z,-8.3
2022-09-15T16:08:27.834Z,-8.7
2022-09-15T16:10:06.502Z,-6.5
2022-09-15T16:11:13.735Z,-5.5
2022-09-15T16:12:20.934Z,-4.7
2022-09-15T16:13:59.636Z,-4.1
2022-09-15T16:15:38.360Z,-2.5
2022-09-15T16:17:17.053Z,-0.7
2022-09-15T16:18:55.790Z,1.3
2022-09-15T16:20:34.478Z,3.4
2022-09-15T16:22:13.180Z,4.6
2022-09-15T16:23:51.878Z,5.7
2022-09-15T16:25:30.626Z,6.2
2022-09-15T16:27:09.380Z,6.8
2022-09-15T16:28:49.179Z,7.4
2022-09-15T16:32:04.814Z,6.9
2022-09-15T16:33:11.353Z,7.8
2022-09-15T16:34:17.876Z,7.7
2022-09-15T16:35:24.405Z,8
2022-09-15T16:36:30.933Z,8.8
2022-09-15T16:37:37.466Z,9.3
2022-09-15T16:38:43.983Z,9.8
2022-09-15T16:39:50.502Z,9.8
2022-09-15T16:40:57.051Z,10.1
2022-09-15T16:42:03.569Z,10.9
2022-09-15T16:43:10.159Z,11.3
2022-09-15T16:44:16.660Z,11.7
2022-09-15T16:45:23.208Z,12.4
2022-09-15T16:46:29.752Z,13
2022-09-15T16:47:36.306Z,12.7
2022-09-15T16:48:42.837Z,13
2022-09-15T16:49:49.385Z,12.4
2022-09-15T16:52:02.471Z,12.4
2022-09-15T16:53:09.012Z,12.4
2022-09-15T16:54:15.568Z,13.5
2022-09-15T16:55:22.122Z,13.8
2022-09-15T16:56:28.664Z,14.2
2022-09-15T16:57:35.215Z,15
2022-09-15T16:58:41.763Z,15.6
2022-09-15T16:59:48.479Z,15.8
2022-09-15T17:00:55.259Z,16.2
2022-09-15T17:02:02.062Z,17.2
2022-09-15T17:03:08.825Z,18.8
2022-09-15T17:04:15.614Z,20.2
2022-09-15T17:05:22.389Z,21.8
2022-09-15T17:06:29.248Z,23.6
2022-09-15T17:07:35.971Z,24.4
2022-09-15T17:08:42.735Z,24.4
2022-09-15T17:09:49.506Z,24.4
2022-09-15T17:10:56.216Z,24.6
2022-09-15T17:12:02.991Z,24.6
2022-09-15T17:13:09.761Z,24.6
2022-09-15T17:15:50.190Z,24.8
2022-09-15T17:17:28.943Z,25.8
2022-09-15T17:19:07.696Z,26.6
2022-09-15T17:20:46.454Z,26.6
2022-09-15T17:21:53.697Z,27.6
2022-09-15T17:23:00.936Z,28.4
2022-09-15T17:24:39.697Z,28.8
2022-09-15T17:26:18.431Z,30.8
2022-09-15T17:27:57.189Z,32.2
2022-09-15T17:29:35.878Z,34.4
2022-09-15T17:31:14.580Z,35.6
2022-09-15T17:32:53.287Z,35.8
2022-09-15T17:34:31.991Z,35.4
2022-09-15T17:38:21.733Z,35.2
2022-09-15T17:39:28.548Z,36.8
2022-09-15T17:40:35.297Z,37.4